Elda A — WDH6629 — position and weather

sailwx.info

Track history (hours):
 
Tides and Currents Weather Stations Pressure Air Temp Water Temp Dewpoint Dewpoint Depression Visibility Wind Speed Wind Dir Waves Ship Positions

Elda A

Owner: REC Marine Logistics, Galliano, LA. More information available from US FCC via Universal Licensing System and Coast Guard Vessel Documentation Center.

Last reported at 2018-Feb-23 00:00 UTC. Time now 2018-Feb-25 14:11 UTC.
Position N 29°50' W 091°58'.

Length 14 m.

Type: Tug. MMSI: 367639990.

Date/timePositionNaut miles runAvg speedWind from/ knotsBaromVisibWave heightAir tempDewpointWater temp
2018-Feb-23 00:00N 29°50' W 091°58'4 7.0
2018-Feb-22 23:28N 29°49' W 092°02'3 7.0
2018-Feb-22 23:00N 29°48' W 092°06'3 7.0
2018-Feb-22 22:30N 29°47' W 092°09'3 4.9
2018-Feb-22 21:59N 29°47' W 092°12'1 2.0
2018-Feb-22 21:29N 29°48' W 092°13'0 0.0
2018-Feb-22 20:57N 29°48' W 092°13'0 0.0
2018-Feb-22 20:30N 29°48' W 092°13'2 3.6
2018-Feb-22 20:00N 29°48' W 092°15'3 6.5
2018-Feb-22 19:30N 29°50' W 092°18'2 0.2
2018-Feb-22 06:06N 29°51' W 092°21'1 6.7
2018-Feb-22 06:00N 29°51' W 092°20'3 5.7
2018-Feb-22 05:30N 29°49' W 092°17'3 6.5
2018-Feb-22 05:00N 29°48' W 092°14'2 3.1
2018-Feb-22 04:30N 29°47' W 092°12'1 2.9
2018-Feb-22 04:00N 29°47' W 092°11'1 2.4
2018-Feb-22 03:30N 29°47' W 092°10'3 6.8
2018-Feb-22 03:00N 29°48' W 092°06'2 2.8
2018-Feb-22 02:28N 29°48' W 092°04'3 7.1
2018-Feb-22 02:00N 29°50' W 092°01'58 4.2
2018-Feb-21 12:15N 29°34' W 090°56'5 5.3
2018-Feb-21 11:18N 29°32' W 090°50'1 5.1
2018-Feb-21 11:00N 29°32' W 090°49'2 4.9
2018-Feb-21 10:30N 29°32' W 090°46'2 3.7
2018-Feb-21 10:00N 29°34' W 090°45'2 3.1
2018-Feb-21 09:30N 29°34' W 090°43'1 2.9
2018-Feb-21 09:01N 29°36' W 090°43'1 2.0
2018-Feb-21 08:30N 29°37' W 090°42'1 2.2
2018-Feb-21 08:01N 29°36' W 090°41'0 0.1
2018-Feb-21 07:30N 29°36' W 090°41'0 0.1
2018-Feb-21 07:00N 29°36' W 090°41'0 0.9
2018-Feb-21 06:30N 29°36' W 090°40'0 0.7
2018-Feb-21 06:00N 29°36' W 090°40'0 0.0
2018-Feb-21 05:30N 29°36' W 090°40'0 0.5
2018-Feb-21 05:00N 29°36' W 090°40'0 0.0
2018-Feb-21 04:30N 29°36' W 090°40'0 0.0
2018-Feb-21 03:59N 29°36' W 090°40'0 0.0
2018-Feb-21 03:30N 29°36' W 090°40'0 0.6
2018-Feb-21 03:00N 29°36' W 090°40'0 0.1
2018-Feb-21 02:30N 29°36' W 090°40'0 0.3
2018-Feb-21 02:00N 29°36' W 090°40'2 4.0
2018-Feb-21 01:30N 29°35' W 090°38'2 4.9
2018-Feb-21 01:00N 29°35' W 090°35'2 4.4
2018-Feb-21 00:30N 29°34' W 090°33'2 4.9
2018-Feb-21 00:00N 29°34' W 090°30'  
Track history (hours):
 
Tides and Currents Weather Stations Pressure Air Temp Water Temp Dewpoint Dewpoint Depression Visibility Wind Speed Wind Dir Waves Ship Positions

Elda A

Owner: REC Marine Logistics, Galliano, LA. More information available from US FCC via Universal Licensing System and Coast Guard Vessel Documentation Center.

Last reported at 2018-Feb-23 00:00 UTC. Time now 2018-Feb-25 14:11 UTC.
Position N 29°50' W 091°58'.

Length 14 m.

Type: Tug. MMSI: 367639990.

Date/timePositionNaut miles runAvg speedWind from/ knotsBaromVisibWave heightAir tempDewpointWater temp
2018-Feb-23 00:00N 29°50' W 091°58'4 7.0
2018-Feb-22 23:28N 29°49' W 092°02'3 7.0
2018-Feb-22 23:00N 29°48' W 092°06'3 7.0
2018-Feb-22 22:30N 29°47' W 092°09'3 4.9
2018-Feb-22 21:59N 29°47' W 092°12'1 2.0
2018-Feb-22 21:29N 29°48' W 092°13'0 0.0
2018-Feb-22 20:57N 29°48' W 092°13'0 0.0
2018-Feb-22 20:30N 29°48' W 092°13'2 3.6
2018-Feb-22 20:00N 29°48' W 092°15'3 6.5
2018-Feb-22 19:30N 29°50' W 092°18'2 0.2
2018-Feb-22 06:06N 29°51' W 092°21'1 6.7
2018-Feb-22 06:00N 29°51' W 092°20'3 5.7
2018-Feb-22 05:30N 29°49' W 092°17'3 6.5
2018-Feb-22 05:00N 29°48' W 092°14'2 3.1
2018-Feb-22 04:30N 29°47' W 092°12'1 2.9
2018-Feb-22 04:00N 29°47' W 092°11'1 2.4
2018-Feb-22 03:30N 29°47' W 092°10'3 6.8
2018-Feb-22 03:00N 29°48' W 092°06'2 2.8
2018-Feb-22 02:28N 29°48' W 092°04'3 7.1
2018-Feb-22 02:00N 29°50' W 092°01'58 4.2
2018-Feb-21 12:15N 29°34' W 090°56'5 5.3
2018-Feb-21 11:18N 29°32' W 090°50'1 5.1
2018-Feb-21 11:00N 29°32' W 090°49'2 4.9
2018-Feb-21 10:30N 29°32' W 090°46'2 3.7
2018-Feb-21 10:00N 29°34' W 090°45'2 3.1
2018-Feb-21 09:30N 29°34' W 090°43'1 2.9
2018-Feb-21 09:01N 29°36' W 090°43'1 2.0
2018-Feb-21 08:30N 29°37' W 090°42'1 2.2
2018-Feb-21 08:01N 29°36' W 090°41'0 0.1
2018-Feb-21 07:30N 29°36' W 090°41'0 0.1
2018-Feb-21 07:00N 29°36' W 090°41'0 0.9
2018-Feb-21 06:30N 29°36' W 090°40'0 0.7
2018-Feb-21 06:00N 29°36' W 090°40'0 0.0
2018-Feb-21 05:30N 29°36' W 090°40'0 0.5
2018-Feb-21 05:00N 29°36' W 090°40'0 0.0
2018-Feb-21 04:30N 29°36' W 090°40'0 0.0
2018-Feb-21 03:59N 29°36' W 090°40'0 0.0
2018-Feb-21 03:30N 29°36' W 090°40'0 0.6
2018-Feb-21 03:00N 29°36' W 090°40'0 0.1
2018-Feb-21 02:30N 29°36' W 090°40'0 0.3
2018-Feb-21 02:00N 29°36' W 090°40'2 4.0
2018-Feb-21 01:30N 29°35' W 090°38'2 4.9
2018-Feb-21 01:00N 29°35' W 090°35'2 4.4
2018-Feb-21 00:30N 29°34' W 090°33'2 4.9
2018-Feb-21 00:00N 29°34' W 090°30'  

Dump ship's entire track history